Time;durP1;ratioP1;P1;durP2;ratioP2;P2;SDS_P1;SDS_P2;PMS_P1;PMS_P2;Temp;Humidity;BMP_temperature;BMP_pressure;BME280_temperature;BME280_humidity;BME280_pressure;Samples;Min_cycle;Max_cycle;Signal;HPM_P1;HPM_P2
2023/09/27 00:00:32;;;;;;;13.88;9.48;;;;;;;13.93;100.00;101419.47;4977354;28;20440;-83
2023/09/27 00:03:06;;;;;;;14.93;9.20;;;;;;;14.01;100.00;101415.28;4989608;28;20429;-82
2023/09/27 00:05:36;;;;;;;13.65;9.20;;;;;;;13.89;100.00;101410.19;4968687;28;20433;-83
2023/09/27 00:08:06;;;;;;;12.70;9.18;;;;;;;13.82;100.00;101404.19;4961353;28;20429;-83
2023/09/27 00:10:34;;;;;;;14.30;9.43;;;;;;;13.76;100.00;101399.88;4976712;28;20437;-83
2023/09/27 00:13:03;;;;;;;13.50;9.35;;;;;;;13.69;100.00;101396.63;4974473;28;20446;-83
2023/09/27 00:15:37;;;;;;;14.15;9.98;;;;;;;13.69;100.00;101391.97;4978277;28;20786;-82
2023/09/27 00:18:09;;;;;;;13.55;9.45;;;;;;;13.71;100.00;101399.88;4977184;28;20447;-83
2023/09/27 00:20:39;;;;;;;13.40;9.70;;;;;;;13.70;100.00;101390.88;4971479;28;20434;-83
2023/09/27 00:23:08;;;;;;;14.27;9.80;;;;;;;13.76;100.00;101383.44;4975736;28;20424;-84
2023/09/27 00:25:36;;;;;;;13.70;9.75;;;;;;;13.80;100.00;101378.25;4977829;28;20812;-83
2023/09/27 00:28:05;;;;;;;14.03;9.67;;;;;;;13.84;100.00;101380.13;4980277;28;20424;-83
2023/09/27 00:30:38;;;;;;;13.23;9.50;;;;;;;13.81;100.00;101385.31;4978259;28;20424;-83
2023/09/27 00:33:07;;;;;;;12.70;9.45;;;;;;;13.78;100.00;101383.97;4981756;28;20783;-84
2023/09/27 00:35:47;;;;;;;15.97;9.53;;;;;;;13.78;100.00;101382.06;4978712;28;20449;-83
2023/09/27 00:38:16;;;;;;;13.68;9.13;;;;;;;13.76;100.00;101386.19;4975212;28;20466;-85
2023/09/27 00:40:50;;;;;;;13.50;9.43;;;;;;;13.82;100.00;101384.22;4984772;28;20449;-83
2023/09/27 00:43:31;;;;;;;12.85;10.00;;;;;;;13.81;100.00;101380.69;4987060;28;20433;-83
2023/09/27 00:46:01;;;;;;;13.80;9.85;;;;;;;13.78;100.00;101378.50;4975592;28;20426;-83
2023/09/27 00:48:31;;;;;;;14.13;9.70;;;;;;;13.81;100.00;101379.84;4975314;28;20903;-83
2023/09/27 00:51:01;;;;;;;18.48;9.85;;;;;;;13.86;100.00;101377.91;4985065;28;20418;-83
2023/09/27 00:53:37;;;;;;;12.93;9.43;;;;;;;13.88;100.00;101375.72;4980016;28;20439;-83
2023/09/27 00:56:14;;;;;;;14.02;9.88;;;;;;;13.84;100.00;101365.63;4969996;28;20437;-83
2023/09/27 00:58:42;;;;;;;14.75;9.52;;;;;;;13.82;100.00;101356.88;4981713;28;21155;-84
2023/09/27 01:01:12;;;;;;;14.00;9.90;;;;;;;13.72;100.00;101365.97;4997277;28;20439;-85
2023/09/27 01:03:41;;;;;;;14.15;9.90;;;;;;;13.67;100.00;101377.78;4973956;28;20432;-82
2023/09/27 01:06:17;;;;;;;12.82;9.77;;;;;;;13.73;100.00;101381.28;4977120;28;20813;-83
2023/09/27 01:08:50;;;;;;;14.65;9.95;;;;;;;13.67;100.00;101385.16;4976523;28;20428;-83
2023/09/27 01:11:24;;;;;;;13.80;10.23;;;;;;;13.62;100.00;101386.00;4956867;28;20908;-84
2023/09/27 01:13:58;;;;;;;14.85;11.10;;;;;;;13.66;100.00;101384.34;4972388;28;20424;-84
2023/09/27 01:16:26;;;;;;;15.85;10.73;;;;;;;13.61;100.00;101371.50;4974923;28;20937;-83
2023/09/27 01:18:55;;;;;;;15.60;10.52;;;;;;;13.57;100.00;101366.88;4979522;28;20438;-83
2023/09/27 01:21:24;;;;;;;14.73;10.50;;;;;;;13.49;100.00;101362.84;4966019;28;20894;-84
2023/09/27 01:24:00;;;;;;;14.98;10.45;;;;;;;13.43;100.00;101361.22;4970689;28;20457;-83
2023/09/27 01:26:31;;;;;;;15.70;10.57;;;;;;;13.44;100.00;101371.88;4983149;28;20438;-83
2023/09/27 01:28:59;;;;;;;14.68;10.40;;;;;;;13.48;100.00;101372.16;4974078;28;20455;-83
2023/09/27 01:31:28;;;;;;;13.30;10.30;;;;;;;13.41;100.00;101372.44;4980774;28;20457;-84
2023/09/27 01:33:56;;;;;;;14.27;10.60;;;;;;;13.36;100.00;101363.47;4982852;28;20447;-84
2023/09/27 01:36:24;;;;;;;15.40;10.63;;;;;;;13.31;100.00;101363.44;4985081;28;20434;-84
2023/09/27 01:38:52;;;;;;;15.20;10.83;;;;;;;13.21;100.00;101364.31;4981700;28;20778;-83
2023/09/27 01:41:27;;;;;;;14.45;10.50;;;;;;;13.20;100.00;101365.41;4983819;28;20426;-83
2023/09/27 01:43:55;;;;;;;15.20;10.75;;;;;;;13.17;100.00;101366.78;4974638;28;20437;-83
2023/09/27 01:46:28;;;;;;;15.77;10.50;;;;;;;13.17;100.00;101355.06;4976006;28;20436;-84
2023/09/27 01:49:01;;;;;;;14.93;10.13;;;;;;;13.11;100.00;101359.72;4981257;28;20430;-83
2023/09/27 01:51:35;;;;;;;15.52;10.75;;;;;;;13.03;100.00;101363.84;4978032;28;20893;-83
2023/09/27 01:54:03;;;;;;;14.07;10.50;;;;;;;13.04;100.00;101356.47;4976919;28;20430;-83
2023/09/27 01:56:33;;;;;;;14.63;10.95;;;;;;;12.97;100.00;101354.06;4988898;28;20414;-83
2023/09/27 01:59:06;;;;;;;14.23;10.23;;;;;;;12.90;100.00;101348.88;4979988;28;20451;-82
2023/09/27 02:01:34;;;;;;;15.65;10.60;;;;;;;12.93;100.00;101351.03;4978643;28;20430;-83
2023/09/27 02:04:02;;;;;;;16.08;10.75;;;;;;;12.89;100.00;101358.16;4976498;28;20418;-82
2023/09/27 02:06:31;;;;;;;16.83;10.68;;;;;;;12.82;100.00;101354.91;4981326;28;20948;-83
2023/09/27 02:08:59;;;;;;;14.77;10.25;;;;;;;12.83;100.00;101353.00;4967467;28;20441;-83
2023/09/27 02:11:27;;;;;;;16.52;11.10;;;;;;;12.78;100.00;101350.31;4976270;28;20451;-81
2023/09/27 02:13:57;;;;;;;15.50;10.73;;;;;;;12.73;100.00;101343.75;4987725;28;20478;-83
2023/09/27 02:16:25;;;;;;;16.00;10.93;;;;;;;12.68;100.00;101343.75;4974290;28;20575;-82
2023/09/27 02:18:58;;;;;;;14.68;10.52;;;;;;;12.63;100.00;101346.50;4985632;28;20422;-82
2023/09/27 02:21:32;;;;;;;15.20;11.17;;;;;;;12.61;100.00;101354.16;4977822;28;20454;-82
2023/09/27 02:24:07;;;;;;;16.67;10.93;;;;;;;12.58;100.00;101358.25;4968442;28;20423;-81
2023/09/27 02:26:36;;;;;;;15.95;10.82;;;;;;;12.55;100.00;101355.25;4985510;28;20494;-82
2023/09/27 02:29:08;;;;;;;17.13;10.70;;;;;;;12.50;100.00;101353.38;4980099;28;20416;-82
2023/09/27 02:31:37;;;;;;;15.65;11.00;;;;;;;12.52;100.00;101362.09;4984542;28;20444;-81
2023/09/27 02:34:12;;;;;;;15.00;10.52;;;;;;;12.49;100.00;101368.09;4973085;28;20462;-82
2023/09/27 02:36:46;;;;;;;17.13;11.38;;;;;;;12.49;100.00;101368.09;4981603;28;20426;-82
2023/09/27 02:39:20;;;;;;;17.50;11.73;;;;;;;12.49;100.00;101359.09;4979502;28;20438;-81
2023/09/27 02:41:48;;;;;;;17.47;11.70;;;;;;;12.51;100.00;101367.81;4973277;28;20446;-82
2023/09/27 02:44:18;;;;;;;17.07;11.90;;;;;;;12.49;100.00;101370.84;4988790;28;20859;-82
2023/09/27 02:46:46;;;;;;;17.20;12.32;;;;;;;12.43;100.00;101377.41;4980271;28;20414;-81
2023/09/27 02:49:14;;;;;;;16.35;11.27;;;;;;;12.40;100.00;101391.59;4977718;28;20426;-83
2023/09/27 02:51:43;;;;;;;16.00;11.23;;;;;;;12.40;100.00;101392.44;4982339;28;20922;-83
2023/09/27 02:54:11;;;;;;;19.10;12.05;;;;;;;12.41;100.00;101395.97;4981837;28;20430;-82
2023/09/27 02:56:45;;;;;;;17.23;11.98;;;;;;;12.41;100.00;101388.59;4983060;28;20437;-83
2023/09/27 02:59:19;;;;;;;17.05;13.00;;;;;;;12.36;100.00;101379.59;4985616;28;20432;-81
2023/09/27 03:01:52;;;;;;;15.43;12.00;;;;;;;12.32;100.00;101381.22;4971721;28;20424;-81
2023/09/27 03:04:26;;;;;;;17.52;12.32;;;;;;;12.28;100.00;101380.97;4978124;28;20411;-81
2023/09/27 03:06:59;;;;;;;17.58;12.55;;;;;;;12.27;100.00;101392.16;4979936;28;20428;-82
2023/09/27 03:09:33;;;;;;;19.33;13.20;;;;;;;12.17;100.00;101382.88;4983404;28;20432;-81
2023/09/27 03:12:06;;;;;;;18.55;12.55;;;;;;;12.16;100.00;101389.41;4979966;28;20429;-81
2023/09/27 03:14:41;;;;;;;16.27;12.85;;;;;;;12.11;100.00;101389.44;4996472;28;20446;-82
2023/09/27 03:17:10;;;;;;;17.13;12.88;;;;;;;12.13;100.00;101398.16;4978942;28;20427;-81
2023/09/27 03:19:39;;;;;;;17.07;13.00;;;;;;;12.20;100.00;101397.88;4981031;28;20436;-82
2023/09/27 03:22:12;;;;;;;19.00;14.02;;;;;;;12.19;100.00;101398.97;4987110;28;20434;-82
2023/09/27 03:24:45;;;;;;;16.80;12.57;;;;;;;12.19;100.00;101409.88;4987065;28;20437;-81
2023/09/27 03:27:18;;;;;;;17.90;13.43;;;;;;;12.19;100.00;101427.09;4983255;28;20428;-81
2023/09/27 03:29:48;;;;;;;18.98;13.10;;;;;;;12.21;100.00;101424.91;4978833;28;20428;-81
2023/09/27 03:32:21;;;;;;;18.80;13.30;;;;;;;12.13;100.00;101422.72;4974822;28;20439;-81
2023/09/27 03:34:51;;;;;;;20.58;13.48;;;;;;;12.08;100.00;101420.81;4983584;28;20420;-81
2023/09/27 03:37:24;;;;;;;19.20;12.63;;;;;;;12.05;100.00;101409.63;4997156;28;20433;-81
2023/09/27 03:39:58;;;;;;;20.60;13.07;;;;;;;11.96;100.00;101403.88;4985957;28;20797;-81
2023/09/27 03:42:33;;;;;;;15.43;11.85;;;;;;;11.94;100.00;101414.22;4986478;28;20427;-82
2023/09/27 03:45:03;;;;;;;19.02;12.32;;;;;;;11.86;100.00;101420.19;4986764;28;20774;-81
2023/09/27 03:47:31;;;;;;;17.77;12.93;;;;;;;11.81;100.00;101418.28;4980018;28;20429;-81
2023/09/27 03:49:59;;;;;;;18.42;12.32;;;;;;;11.84;100.00;101422.38;4982034;28;20905;-81
2023/09/27 03:52:28;;;;;;;18.85;13.13;;;;;;;11.74;100.00;101420.47;4981732;28;20434;-80
2023/09/27 03:55:01;;;;;;;17.30;12.32;;;;;;;11.64;100.00;101417.69;4978272;28;20787;-81
2023/09/27 03:57:37;;;;;;;19.02;12.73;;;;;;;11.58;100.00;101412.22;4983238;28;20410;-81
2023/09/27 04:00:12;;;;;;;17.30;12.60;;;;;;;11.56;100.00;101411.69;4977231;28;20427;-81
2023/09/27 04:02:48;;;;;;;15.63;12.02;;;;;;;11.58;100.00;101419.59;4985259;28;20437;-82
2023/09/27 04:05:23;;;;;;;16.23;12.35;;;;;;;11.57;100.00;101412.50;4984948;28;21162;-81
2023/09/27 04:07:51;;;;;;;19.50;12.82;;;;;;;11.51;100.00;101411.66;4978996;28;20746;-81
2023/09/27 04:10:26;;;;;;;16.75;12.68;;;;;;;11.53;100.00;101403.22;4973986;28;20447;-81
2023/09/27 04:12:55;;;;;;;16.20;12.43;;;;;;;11.51;100.00;101414.38;4986764;28;20410;-81
2023/09/27 04:15:30;;;;;;;19.33;13.38;;;;;;;11.52;100.00;101417.94;4975097;28;20427;-81
2023/09/27 04:18:04;;;;;;;18.60;13.70;;;;;;;11.53;100.00;101414.94;4981384;28;20436;-81
2023/09/27 04:20:37;;;;;;;18.60;13.10;;;;;;;11.45;100.00;101410.03;4984548;28;20497;-81
2023/09/27 04:23:10;;;;;;;18.05;13.63;;;;;;;11.45;100.00;101403.72;4980279;28;20428;-81
2023/09/27 04:25:44;;;;;;;18.37;13.20;;;;;;;11.45;100.00;101407.28;4984085;28;21135;-81
2023/09/27 04:28:17;;;;;;;21.13;13.67;;;;;;;11.45;100.00;101398.28;4997708;28;20426;-82
2023/09/27 04:30:52;;;;;;;20.63;13.70;;;;;;;11.51;100.00;101403.47;4967185;28;20426;-82
2023/09/27 04:33:25;;;;;;;20.63;15.38;;;;;;;11.58;100.00;101406.75;4980052;28;20924;-81
2023/09/27 04:35:59;;;;;;;24.05;15.23;;;;;;;11.59;100.00;101410.34;4978190;28;20440;-82
2023/09/27 04:38:27;;;;;;;21.52;16.27;;;;;;;11.62;100.00;101411.72;4976464;28;20453;-82
2023/09/27 04:41:00;;;;;;;22.57;16.67;;;;;;;11.68;100.00;101418.78;4978834;28;20975;-81
2023/09/27 04:43:34;;;;;;;24.73;17.02;;;;;;;11.74;100.00;101417.72;4956936;28;20438;-81
2023/09/27 04:46:08;;;;;;;23.60;17.08;;;;;;;11.78;100.00;101416.09;4979289;28;20424;-82
2023/09/27 04:48:42;;;;;;;24.77;16.90;;;;;;;11.81;100.00;101428.38;4977468;28;21101;-82
2023/09/27 04:51:15;;;;;;;23.27;17.25;;;;;;;11.84;100.00;101428.66;4972308;28;20444;-81
2023/09/27 04:53:43;;;;;;;23.25;17.35;;;;;;;11.80;100.00;101424.81;4976465;28;20433;-81
2023/09/27 04:56:11;;;;;;;24.35;17.27;;;;;;;11.82;100.00;101425.38;4972345;28;20798;-82
2023/09/27 04:58:40;;;;;;;23.77;17.15;;;;;;;11.81;100.00;101425.66;4974349;28;20790;-82
2023/09/27 05:01:11;;;;;;;23.67;17.23;;;;;;;11.79;100.00;101425.09;4978838;28;20432;-82
2023/09/27 05:03:44;;;;;;;25.60;17.08;;;;;;;11.78;100.00;101424.28;4975764;28;20424;-81
2023/09/27 05:06:17;;;;;;;22.30;16.92;;;;;;;11.82;100.00;101425.38;4977462;28;20423;-82
2023/09/27 05:08:50;;;;;;;22.25;16.33;;;;;;;11.84;100.00;101425.91;4976844;28;20422;-82
2023/09/27 05:11:23;;;;;;;21.83;16.42;;;;;;;11.88;100.00;101429.75;4975724;28;20424;-82
2023/09/27 05:13:57;;;;;;;22.45;16.52;;;;;;;11.85;100.00;101427.56;4980400;28;20777;-82
2023/09/27 05:16:36;;;;;;;21.25;15.60;;;;;;;11.79;100.00;101423.19;4970139;28;20426;-82
2023/09/27 05:19:10;;;;;;;23.67;16.95;;;;;;;11.81;100.00;101414.75;4968692;28;20431;-82
2023/09/27 05:21:44;;;;;;;25.40;16.92;;;;;;;11.82;100.00;101421.81;4971154;28;20434;-81
2023/09/27 05:24:17;;;;;;;22.60;16.50;;;;;;;11.83;100.00;101427.00;4987060;28;20418;-82
2023/09/27 05:26:50;;;;;;;23.60;16.92;;;;;;;11.85;100.00;101422.13;4980429;28;20428;-83
2023/09/27 05:29:21;;;;;;;23.30;17.30;;;;;;;11.92;100.00;101424.59;4976734;28;20430;-83
2023/09/27 05:31:55;;;;;;;24.77;16.80;;;;;;;11.90;100.00;101424.03;4976485;28;20449;-84
2023/09/27 05:34:30;;;;;;;23.30;17.42;;;;;;;11.97;100.00;101424.59;4966284;28;20416;-83
2023/09/27 05:36:58;;;;;;;24.00;17.17;;;;;;;11.99;100.00;101432.53;4982692;28;20435;-82
2023/09/27 05:39:31;;;;;;;24.25;17.58;;;;;;;12.00;100.00;101436.88;4975198;28;20440;-84
2023/09/27 05:42:00;;;;;;;22.38;17.25;;;;;;;11.96;100.00;101435.78;4979090;28;20814;-83
2023/09/27 05:44:28;;;;;;;23.80;17.98;;;;;;;12.04;100.00;101446.16;4972652;28;20412;-83
2023/09/27 05:46:57;;;;;;;24.30;18.00;;;;;;;12.02;100.00;101443.72;4967897;28;20432;-84
2023/09/27 05:49:26;;;;;;;25.45;17.50;;;;;;;12.08;100.00;101439.06;4975426;28;20435;-84
2023/09/27 05:51:55;;;;;;;27.95;17.98;;;;;;;12.18;100.00;101435.53;4971833;28;20412;-82
2023/09/27 05:54:24;;;;;;;24.98;18.15;;;;;;;12.18;100.00;101433.66;4980953;28;20420;-83
2023/09/27 05:56:57;;;;;;;24.20;17.90;;;;;;;12.29;100.00;101426.28;4973677;28;20440;-84
2023/09/27 05:59:25;;;;;;;24.35;17.63;;;;;;;12.32;100.00;101422.16;4963898;28;20453;-82
2023/09/27 06:02:02;;;;;;;23.98;18.10;;;;;;;12.46;100.00;101425.19;4975909;28;20431;-82
2023/09/27 06:04:30;;;;;;;24.13;16.58;;;;;;;12.48;100.00;101422.97;4972513;28;20427;-82
2023/09/27 06:06:59;;;;;;;22.20;16.27;;;;;;;12.49;100.00;101430.09;4978706;28;20429;-83
2023/09/27 06:09:32;;;;;;;22.38;16.55;;;;;;;12.53;100.00;101426.53;4970721;28;20420;-81
2023/09/27 06:12:00;;;;;;;23.43;16.33;;;;;;;12.59;100.00;101436.38;4974561;28;20924;-81
2023/09/27 06:14:28;;;;;;;22.13;16.02;;;;;;;12.64;100.00;101429.25;4974697;28;21263;-82
2023/09/27 06:16:57;;;;;;;22.35;16.30;;;;;;;12.67;100.00;101434.16;4971068;28;20428;-82
2023/09/27 06:19:32;;;;;;;22.17;16.08;;;;;;;12.67;100.00;101424.06;4969844;28;20974;-80
2023/09/27 06:22:05;;;;;;;20.58;15.10;;;;;;;12.75;100.00;101425.41;4977777;28;20439;-82
2023/09/27 06:24:39;;;;;;;22.77;15.50;;;;;;;12.77;100.00;101431.41;4988245;28;20451;-81
2023/09/27 06:27:12;;;;;;;20.98;15.70;;;;;;;12.82;100.00;101419.66;4973772;28;20474;-80
2023/09/27 06:29:46;;;;;;;19.42;15.35;;;;;;;12.85;100.00;101421.84;4976568;28;20430;-82
2023/09/27 06:32:22;;;;;;;19.92;15.15;;;;;;;12.91;100.00;101418.81;4987103;28;21990;-82
2023/09/27 06:34:53;;;;;;;19.90;15.20;;;;;;;12.98;100.00;101429.47;4972082;28;20418;-81
2023/09/27 06:37:21;;;;;;;23.20;15.10;;;;;;;13.02;100.00;101427.81;4971217;28;20434;-81
2023/09/27 06:39:49;;;;;;;19.97;14.73;;;;;;;13.05;100.00;101437.34;4935639;28;20424;-82
2023/09/27 06:42:23;;;;;;;18.02;13.70;;;;;;;12.99;100.00;101441.19;4944553;28;20440;-82
2023/09/27 06:44:56;;;;;;;19.58;14.40;;;;;;;12.95;100.00;101426.44;4952587;28;20440;-82
2023/09/27 06:47:31;;;;;;;21.55;14.55;;;;;;;12.92;100.00;101433.28;4953159;28;20424;-82
2023/09/27 06:50:06;;;;;;;19.23;14.32;;;;;;;12.89;100.00;101429.19;4951859;28;20979;-83
2023/09/27 06:52:40;;;;;;;20.07;14.60;;;;;;;12.91;100.00;101434.38;4949607;28;20442;-83
2023/09/27 06:55:16;;;;;;;19.98;15.05;;;;;;;12.91;100.00;101432.47;4955823;28;20435;-81
2023/09/27 06:57:52;;;;;;;20.35;15.13;;;;;;;12.98;100.00;101429.47;4974916;28;20428;-82
2023/09/27 07:00:25;;;;;;;20.73;14.90;;;;;;;13.07;100.00;101427.78;4952827;28;20432;-82
2023/09/27 07:02:58;;;;;;;21.05;14.75;;;;;;;13.16;100.00;101421.72;4958834;28;20440;-83
2023/09/27 07:05:35;;;;;;;20.45;14.27;;;;;;;13.21;100.00;101422.53;4958856;28;21398;-82
2023/09/27 07:08:03;;;;;;;20.90;14.13;;;;;;;13.27;100.00;101429.63;4955276;28;20423;-83
2023/09/27 07:10:37;;;;;;;18.45;14.25;;;;;;;13.34;100.00;101432.06;4952980;28;20444;-83
2023/09/27 07:13:06;;;;;;;18.53;14.27;;;;;;;13.46;100.00;101439.16;4952397;28;20435;-83
2023/09/27 07:15:39;;;;;;;19.80;13.95;;;;;;;13.49;100.00;101431.22;4953925;28;20428;-82
2023/09/27 07:18:08;;;;;;;18.00;13.27;;;;;;;13.51;100.00;101437.19;4959104;28;20500;-82
2023/09/27 07:20:43;;;;;;;20.70;14.13;;;;;;;13.59;100.00;101442.09;4959608;28;20432;-82
2023/09/27 07:23:14;;;;;;;18.42;13.32;;;;;;;13.66;100.00;101438.22;4950871;28;20441;-83
2023/09/27 07:25:48;;;;;;;18.58;13.20;;;;;;;13.69;100.00;101440.41;4959191;28;20498;-82
2023/09/27 07:28:21;;;;;;;18.27;13.18;;;;;;;13.75;100.00;101436.53;4957911;28;20420;-84
2023/09/27 07:30:54;;;;;;;17.67;12.77;;;;;;;13.74;100.00;101437.63;4953226;28;20428;-83
2023/09/27 07:33:23;;;;;;;18.65;13.30;;;;;;;13.87;100.00;101439.72;4957297;28;20420;-84
2023/09/27 07:35:52;;;;;;;16.65;12.77;;;;;;;14.01;100.00;101444.56;4952668;28;20435;-82
2023/09/27 07:38:26;;;;;;;17.67;12.65;;;;;;;14.10;100.00;101448.34;4956942;28;20428;-81
2023/09/27 07:40:59;;;;;;;16.33;12.73;;;;;;;14.16;100.00;101454.59;4952149;28;21101;-84
2023/09/27 07:43:28;;;;;;;16.17;12.77;;;;;;;14.28;100.00;101469.56;4947382;28;20448;-84
2023/09/27 07:46:06;;;;;;;16.47;12.37;;;;;;;14.25;100.00;101469.28;4952505;28;20423;-81
2023/09/27 07:48:41;;;;;;;15.80;11.48;;;;;;;14.34;100.00;101475.00;4954048;28;20415;-83
2023/09/27 07:51:18;;;;;;;15.40;11.07;;;;;;;14.44;100.00;101474.91;4951419;28;20427;-84
2023/09/27 07:53:51;;;;;;;16.30;10.50;;;;;;;14.64;100.00;101482.19;4957746;28;21175;-82
2023/09/27 07:56:20;;;;;;;14.45;11.10;;;;;;;14.74;100.00;101489.47;4952853;28;20444;-83
2023/09/27 07:58:51;;;;;;;15.52;11.20;;;;;;;14.84;100.00;101483.88;4954671;28;20439;-83
2023/09/27 08:02:03;;;;;;;13.77;9.93;;;;;;;14.95;100.00;101490.09;4956550;28;20443;-84
2023/09/27 08:04:39;;;;;;;13.85;10.02;;;;;;;15.02;100.00;101493.31;4933992;28;20444;-85
2023/09/27 08:07:24;;;;;;;14.65;10.50;;;;;;;15.26;100.00;101496.06;4952949;28;20439;-84
2023/09/27 08:09:52;;;;;;;13.80;10.27;;;;;;;15.32;100.00;101496.81;4952971;28;20448;-84
2023/09/27 08:12:21;;;;;;;15.55;9.65;;;;;;;15.58;100.00;101494.59;4956099;28;20469;-85
2023/09/27 08:14:53;;;;;;;12.97;9.20;;;;;;;15.61;100.00;101499.47;4952838;28;20439;-83
2023/09/27 08:17:24;;;;;;;14.82;9.40;;;;;;;15.55;100.00;101491.59;4953972;28;20917;-84
2023/09/27 08:22:46;;;;;;;14.13;8.90;;;;;;;15.59;100.00;101493.50;4953023;28;20511;-82
2023/09/27 08:28:49;;;;;;;15.60;9.32;;;;;;;15.80;100.00;101502.28;4953089;28;20426;-83
2023/09/27 08:31:22;;;;;;;9.82;7.80;;;;;;;15.83;100.00;101506.38;4955008;28;20440;-85
2023/09/27 08:33:51;;;;;;;16.17;8.40;;;;;;;15.91;100.00;101505.72;4956883;28;20781;-83
2023/09/27 08:36:31;;;;;;;10.75;7.70;;;;;;;16.07;100.00;101500.81;4953048;28;20435;-83
2023/09/27 08:39:09;;;;;;;12.43;7.57;;;;;;;16.21;100.00;101500.06;4951245;28;20513;-84
2023/09/27 08:42:10;;;;;;;12.00;7.47;;;;;;;16.28;100.00;101497.75;4954887;28;20428;-81
2023/09/27 08:44:45;;;;;;;10.68;7.15;;;;;;;16.45;100.00;101524.72;4952988;28;20436;-84
2023/09/27 08:47:19;;;;;;;12.60;7.20;;;;;;;16.52;100.00;101527.88;4954337;28;20439;-83
2023/09/27 08:49:49;;;;;;;12.95;7.38;;;;;;;16.61;100.00;101528.84;4950466;28;22311;-84
2023/09/27 08:52:17;;;;;;;11.10;7.63;;;;;;;16.75;100.00;101537.13;4953600;28;20433;-83
2023/09/27 08:54:47;;;;;;;11.93;6.95;;;;;;;16.88;100.00;101531.97;4954567;28;20426;-83
2023/09/27 08:57:17;;;;;;;12.15;7.05;;;;;;;17.13;100.00;101541.72;4954907;28;20439;-82
2023/09/27 08:59:50;;;;;;;11.55;7.13;;;;;;;17.15;100.00;101537.56;4953711;28;20439;-84
2023/09/27 09:02:20;;;;;;;10.57;6.78;;;;;;;17.22;100.00;101534.41;4950008;28;20439;-84
2023/09/27 09:04:53;;;;;;;11.35;7.05;;;;;;;17.22;100.00;101522.56;4951388;28;21167;-83
2023/09/27 09:07:21;;;;;;;11.98;7.20;;;;;;;17.24;100.00;101523.91;4954366;28;20962;-82
2023/09/27 09:09:51;;;;;;;10.55;6.97;;;;;;;17.55;100.00;101539.00;4951702;28;20432;-85
2023/09/27 09:12:20;;;;;;;12.18;8.00;;;;;;;17.45;100.00;101534.50;4953565;28;21437;-83
2023/09/27 09:14:54;;;;;;;14.67;7.63;;;;;;;17.52;100.00;101537.66;4953084;28;20452;-83
2023/09/27 09:17:34;;;;;;;11.30;6.68;;;;;;;17.80;100.00;101530.22;4951981;28;20450;-84
2023/09/27 09:20:15;;;;;;;10.35;6.70;;;;;;;17.74;100.00;101531.44;4961134;28;20463;-85
2023/09/27 09:22:45;;;;;;;9.32;6.47;;;;;;;17.85;100.00;101532.84;4952811;28;20466;-83
2023/09/27 09:25:21;;;;;;;11.68;6.97;;;;;;;17.92;100.00;101523.38;4949950;28;21265;-85
2023/09/27 09:28:03;;;;;;;12.23;6.78;;;;;;;17.94;100.00;101523.88;4947356;28;20435;-83
2023/09/27 09:30:37;;;;;;;10.73;6.63;;;;;;;18.04;100.00;101515.41;4949617;28;21090;-82
2023/09/27 09:33:16;;;;;;;11.70;6.88;;;;;;;18.04;100.00;101509.88;4951713;28;20425;-84
2023/09/27 09:35:50;;;;;;;9.25;5.97;;;;;;;18.32;100.00;101493.25;4954509;28;20936;-82
2023/09/27 09:38:25;;;;;;;12.13;7.10;;;;;;;18.00;100.00;101470.31;4952604;28;20455;-85
2023/09/27 09:40:56;;;;;;;11.60;8.05;;;;;;;17.93;100.00;101456.97;4924243;28;20432;-83
2023/09/27 09:43:33;;;;;;;10.93;7.30;;;;;;;18.03;100.00;101444.91;4948996;28;20447;-87
2023/09/27 09:46:03;;;;;;;10.50;6.63;;;;;;;18.29;100.00;101441.53;4949672;28;20428;-87
2023/09/27 09:48:33;;;;;;;9.98;6.03;;;;;;;18.07;100.00;101447.88;4952747;28;20431;-89
2023/09/27 09:51:06;;;;;;;9.63;6.20;;;;;;;18.33;100.00;101437.84;4951442;28;20439;-89
2023/09/27 09:53:38;;;;;;;11.57;5.63;;;;;;;18.01;100.00;101431.44;4949548;28;20439;-87
2023/09/27 09:56:09;;;;;;;10.68;5.65;;;;;;;18.15;100.00;101425.88;4952040;28;20424;-88
2023/09/27 09:58:44;;;;;;;8.70;5.50;;;;;;;18.21;100.00;101421.06;4948120;28;20444;-89
2023/09/27 10:01:21;;;;;;;9.55;5.93;;;;;;;18.37;100.00;101432.53;4952347;28;20436;-88
2023/09/27 10:03:52;;;;;;;13.98;6.20;;;;;;;18.37;100.00;101429.75;4948130;28;20439;-89
2023/09/27 10:06:21;;;;;;;12.23;6.25;;;;;;;18.53;100.00;101428.25;4949775;28;20428;-87
2023/09/27 10:08:55;;;;;;;13.15;6.63;;;;;;;18.79;100.00;101435.81;4955417;28;20435;-89
2023/09/27 10:11:26;;;;;;;14.07;6.65;;;;;;;18.72;100.00;101434.66;4952325;28;20536;-87
2023/09/27 10:14:00;;;;;;;12.90;7.22;;;;;;;18.65;100.00;101441.44;4950144;28;20905;-89
2023/09/27 10:16:34;;;;;;;13.90;6.53;;;;;;;18.95;100.00;101424.41;4954127;28;20455;-88
2023/09/27 10:19:05;;;;;;;12.80;6.37;;;;;;;19.01;100.00;101439.69;4953059;28;20435;-85
2023/09/27 10:22:02;;;;;;;13.23;7.10;;;;;;;18.92;100.00;101436.06;4966696;28;20813;-87
2023/09/27 10:24:42;;;;;;;28.58;18.40;;;;;;;19.38;100.00;101446.59;4949443;28;20840;-85
2023/09/27 10:27:18;;;;;;;10.25;6.50;;;;;;;19.19;100.00;101454.34;4950432;28;20444;-88
2023/09/27 10:29:57;;;;;;;13.75;7.20;;;;;;;19.22;100.00;101447.38;4952267;28;20956;-85
2023/09/27 10:32:26;;;;;;;12.48;7.28;;;;;;;19.16;100.00;101450.28;4950662;28;20428;-87
2023/09/27 10:35:16;;;;;;;11.48;6.70;;;;;;;19.24;100.00;101451.44;4947473;28;20443;-88
2023/09/27 10:37:58;;;;;;;10.80;6.40;;;;;;;20.05;100.00;101446.53;4950883;28;20436;-86
2023/09/27 10:40:26;;;;;;;14.75;6.00;;;;;;;19.80;100.00;101453.69;4930403;28;20447;-88
2023/09/27 10:42:56;;;;;;;9.80;5.57;;;;;;;19.92;100.00;101458.56;4952218;28;20443;-86
2023/09/27 10:45:32;;;;;;;10.35;6.00;;;;;;;19.87;100.00;101454.84;4951927;28;20439;-89
2023/09/27 10:48:18;;;;;;;12.38;5.93;;;;;;;19.85;100.00;101457.09;4958573;28;20431;-86
2023/09/27 10:51:06;;;;;;;9.48;5.40;;;;;;;19.88;100.00;101455.63;4955513;28;20407;-89
2023/09/27 10:53:34;;;;;;;8.90;5.25;;;;;;;20.24;100.00;101448.97;4951438;28;20431;-88
2023/09/27 10:56:04;;;;;;;8.35;5.03;;;;;;;20.29;100.00;101457.09;4953230;28;20425;-88
2023/09/27 10:58:44;;;;;;;9.43;5.60;;;;;;;20.27;100.00;101458.53;4952329;28;20436;-88
2023/09/27 11:01:22;;;;;;;10.73;6.85;;;;;;;20.21;100.00;101458.72;4953088;28;20440;-89
2023/09/27 11:03:59;;;;;;;9.82;5.13;;;;;;;20.19;100.00;101446.34;4959938;28;20428;-88
2023/09/27 11:06:29;;;;;;;10.98;5.00;;;;;;;20.32;100.00;101448.13;4958194;28;20422;-89
2023/09/27 11:09:06;;;;;;;9.23;4.85;;;;;;;20.30;100.00;101441.31;4956220;28;20545;-89
2023/09/27 11:11:35;;;;;;;7.85;4.63;;;;;;;20.46;100.00;101441.59;4951110;28;20447;-89
2023/09/27 11:14:05;;;;;;;12.13;4.85;;;;;;;20.38;100.00;101435.78;4951247;28;20463;-89
2023/09/27 11:16:52;;;;;;;10.90;4.45;;;;;;;20.39;100.00;101445.69;4958585;28;20431;-89
2023/09/27 11:19:55;;;;;;;13.02;4.53;;;;;;;20.39;100.00;101433.81;4949928;28;20440;-88
2023/09/27 11:22:40;;;;;;;9.23;4.20;;;;;;;20.40;100.00;101443.75;4952240;28;20977;-86
2023/09/27 11:25:33;;;;;;;12.95;5.63;;;;;;;20.43;100.00;101429.25;4955103;28;20816;-87
2023/09/27 11:28:02;;;;;;;9.05;4.90;;;;;;;20.37;100.00;101428.63;4962000;28;21245;-89
2023/09/27 11:30:33;;;;;;;7.20;4.47;;;;;;;20.41;100.00;101437.06;4950717;28;20897;-90
2023/09/27 11:33:04;;;;;;;8.88;4.40;;;;;;;20.46;100.00;101428.59;4957667;28;20432;-88
2023/09/27 11:35:35;;;;;;;10.38;4.20;;;;;;;20.50;100.00;101432.31;4952711;28;20432;-89